Time,TemperatureF,DewpointF,PressureIn,WindDirection,WindDirectionDegrees,WindSpeedMPH,WindSpeedGustMPH,Humidity,HourlyPrecipIn,Conditions,Clouds,dailyrainin,SoftwareType,DateUTC
2013-01-14 00:03:00,26.4,24.9,30.44,West,261,0.0,0.0,94,0.00,,---,0.00,VWS V14.01,2013-01-14 08:03:00,
2013-01-14 00:08:00,26.4,24.9,30.44,West,261,0.0,0.0,94,0.00,,---,0.00,VWS V14.01,2013-01-14 08:08:00,
2013-01-14 00:13:00,26.4,24.6,30.44,West,261,0.0,0.0,93,0.00,,---,0.00,VWS V14.01,2013-01-14 08:13:00,
2013-01-14 00:18:00,26.4,24.6,30.44,West,261,0.0,0.0,93,0.00,,---,0.00,VWS V14.01,2013-01-14 08:18:00,
2013-01-14 00:23:00,26.4,24.6,30.44,West,261,0.0,0.0,93,0.00,,---,0.00,VWS V14.01,2013-01-14 08:23:00,
2013-01-14 00:28:00,26.4,24.6,30.44,West,261,0.0,0.0,93,0.00,,---,0.00,VWS V14.01,2013-01-14 08:28:00,
2013-01-14 00:33:00,26.4,24.6,30.44,West,261,0.0,0.0,93,0.00,,---,0.00,VWS V14.01,2013-01-14 08:33:00,
2013-01-14 00:38:00,26.4,24.6,30.44,West,261,0.0,0.0,93,0.00,,---,0.00,VWS V14.01,2013-01-14 08:38:00,
2013-01-14 00:43:00,26.4,24.6,30.45,West,261,0.0,0.0,93,0.00,,---,0.00,VWS V14.01,2013-01-14 08:43:00,
2013-01-14 00:48:00,26.3,24.6,30.45,West,261,0.0,0.0,93,0.00,,---,0.00,VWS V14.01,2013-01-14 08:48:00,
2013-01-14 00:53:00,26.3,24.6,30.45,West,261,0.0,0.0,93,0.00,,---,0.00,VWS V14.01,2013-01-14 08:53:00,
2013-01-14 00:58:00,26.4,24.6,30.45,West,261,0.0,0.0,93,0.00,,---,0.00,VWS V14.01,2013-01-14 08:58:00,
2013-01-14 01:03:00,26.4,24.6,30.45,West,261,0.0,0.0,93,0.00,,---,0.00,VWS V14.01,2013-01-14 09:03:00,
2013-01-14 01:08:00,26.4,24.6,30.45,West,261,0.0,0.0,93,0.00,,---,0.00,VWS V14.01,2013-01-14 09:08:00,
2013-01-14 01:13:00,26.4,24.6,30.45,West,261,0.0,0.0,93,0.00,,---,0.00,VWS V14.01,2013-01-14 09:13:00,
2013-01-14 01:18:00,26.4,24.6,30.45,West,261,0.0,0.0,93,0.00,,---,0.00,VWS V14.01,2013-01-14 09:18:00,
2013-01-14 01:23:00,26.4,24.6,30.45,SW,226,3.0,3.0,93,0.00,,---,0.00,VWS V14.01,2013-01-14 09:23:00,
2013-01-14 01:28:00,26.4,24.6,30.45,SW,226,0.0,3.0,93,0.00,,---,0.00,VWS V14.01,2013-01-14 09:28:00,
2013-01-14 01:33:00,26.3,24.6,30.45,ESE,121,2.0,3.0,93,0.00,,---,0.00,VWS V14.01,2013-01-14 09:33:00,
2013-01-14 01:38:00,26.3,24.6,30.45,ESE,121,0.0,3.0,93,0.00,,---,0.00,VWS V14.01,2013-01-14 09:38:00,
2013-01-14 01:43:00,26.4,24.6,30.46,SE,127,1.0,3.0,93,0.00,,---,0.00,VWS V14.01,2013-01-14 09:43:00,
2013-01-14 01:48:00,26.4,24.6,30.46,SE,127,2.0,2.0,93,0.00,,---,0.00,VWS V14.01,2013-01-14 09:48:00,
2013-01-14 01:53:00,26.4,24.6,30.46,SE,127,1.0,2.0,93,0.00,,---,0.00,VWS V14.01,2013-01-14 09:53:00,
2013-01-14 01:58:00,26.4,24.6,30.45,SE,127,0.0,2.0,93,0.00,,---,0.00,VWS V14.01,2013-01-14 09:58:00,
2013-01-14 02:03:00,26.4,24.6,30.45,SE,127,0.0,2.0,93,0.00,,---,0.00,VWS V14.01,2013-01-14 10:03:00,
2013-01-14 02:08:00,26.4,24.6,30.45,SE,138,3.0,3.0,93,0.00,,---,0.00,VWS V14.01,2013-01-14 10:08:00,
2013-01-14 02:13:00,26.4,24.6,30.44,SE,141,0.0,3.0,93,0.00,,---,0.00,VWS V14.01,2013-01-14 10:13:00,
2013-01-14 02:18:00,26.4,24.6,30.44,SE,141,0.0,0.0,93,0.00,,---,0.00,VWS V14.01,2013-01-14 10:18:00,
2013-01-14 02:23:00,26.4,24.6,30.44,WSW,250,2.0,2.0,93,0.00,,---,0.00,VWS V14.01,2013-01-14 10:23:00,
2013-01-14 02:28:00,26.4,24.6,30.45,WSW,240,5.0,5.0,93,0.00,,---,0.00,VWS V14.01,2013-01-14 10:28:00,
2013-01-14 02:33:00,26.3,24.6,30.45,SW,236,4.0,5.0,93,0.00,,---,0.00,VWS V14.01,2013-01-14 10:33:00,
2013-01-14 02:38:00,26.3,24.6,30.45,SW,236,0.0,5.0,93,0.00,,---,0.00,VWS V14.01,2013-01-14 10:38:00,
2013-01-14 02:43:00,26.3,24.6,30.46,SW,236,0.0,5.0,93,0.00,,---,0.00,VWS V14.01,2013-01-14 10:43:00,
2013-01-14 02:48:00,26.1,24.4,30.46,SW,236,1.0,1.0,93,0.00,,---,0.00,VWS V14.01,2013-01-14 10:48:00,
2013-01-14 02:53:00,26.1,24.4,30.46,SW,236,0.0,1.0,93,0.00,,---,0.00,VWS V14.01,2013-01-14 10:53:00,
2013-01-14 02:58:00,26.1,24.4,30.46,SW,236,0.0,1.0,93,0.00,,---,0.00,VWS V14.01,2013-01-14 10:58:00,
2013-01-14 03:03:00,26.1,24.4,30.46,SW,236,2.0,2.0,93,0.00,,---,0.00,VWS V14.01,2013-01-14 11:03:00,
2013-01-14 03:08:00,26.0,24.3,30.46,SW,236,4.0,6.0,93,0.00,,---,0.00,VWS V14.01,2013-01-14 11:08:00,
2013-01-14 03:13:00,26.0,24.3,30.45,SW,236,0.0,6.0,93,0.00,,---,0.00,VWS V14.01,2013-01-14 11:13:00,
2013-01-14 03:18:00,26.0,24.3,30.45,SW,236,2.0,5.0,93,0.00,,---,0.00,VWS V14.01,2013-01-14 11:18:00,
2013-01-14 03:23:00,26.0,24.3,30.45,SW,236,0.0,5.0,93,0.00,,---,0.00,VWS V14.01,2013-01-14 11:23:00,
2013-01-14 03:28:00,26.1,24.4,30.46,SW,236,0.0,5.0,93,0.00,,---,0.00,VWS V14.01,2013-01-14 11:28:00,
2013-01-14 03:33:00,26.1,24.4,30.46,SW,236,0.0,5.0,93,0.00,,---,0.00,VWS V14.01,2013-01-14 11:33:00,
2013-01-14 03:38:00,26.1,24.4,30.46,SW,229,0.0,5.0,93,0.00,,---,0.00,VWS V14.01,2013-01-14 11:38:00,
2013-01-14 03:43:00,26.1,24.4,30.46,SW,229,0.0,5.0,93,0.00,,---,0.00,VWS V14.01,2013-01-14 11:43:00,
2013-01-14 03:48:00,26.0,24.3,30.46,SW,229,1.0,1.0,93,0.00,,---,0.00,VWS V14.01,2013-01-14 11:48:00,
2013-01-14 03:53:00,26.0,24.3,30.46,SW,229,2.0,2.0,93,0.00,,---,0.00,VWS V14.01,2013-01-14 11:53:00,
2013-01-14 03:58:00,26.0,24.3,30.45,SW,229,1.0,2.0,93,0.00,,---,0.00,VWS V14.01,2013-01-14 11:58:00,
2013-01-14 04:03:00,26.0,24.3,30.45,SW,229,5.0,5.0,93,0.00,,---,0.00,VWS V14.01,2013-01-14 12:03:00,
2013-01-14 04:08:00,26.0,24.3,30.45,SW,229,0.0,5.0,93,0.00,,---,0.00,VWS V14.01,2013-01-14 12:08:00,
2013-01-14 04:13:00,26.0,24.3,30.45,SW,229,2.0,5.0,93,0.00,,---,0.00,VWS V14.01,2013-01-14 12:13:00,
2013-01-14 04:18:00,26.0,24.3,30.45,SW,229,0.0,2.0,93,0.00,,---,0.00,VWS V14.01,2013-01-14 12:18:00,
2013-01-14 04:23:00,26.0,24.3,30.45,SW,229,0.0,2.0,93,0.00,,---,0.00,VWS V14.01,2013-01-14 12:23:00,
2013-01-14 04:28:00,26.0,24.3,30.46,SW,229,0.0,2.0,93,0.00,,---,0.00,VWS V14.01,2013-01-14 12:28:00,
2013-01-14 04:33:00,26.0,24.3,30.46,SW,229,0.0,2.0,93,0.00,,---,0.00,VWS V14.01,2013-01-14 12:33:00,
2013-01-14 04:38:00,26.0,24.3,30.46,SW,229,0.0,2.0,93,0.00,,---,0.00,VWS V14.01,2013-01-14 12:38:00,
2013-01-14 04:43:00,26.1,24.4,30.46,SW,229,0.0,2.0,93,0.00,,---,0.00,VWS V14.01,2013-01-14 12:43:00,
2013-01-14 04:48:00,26.1,24.4,30.46,SW,229,0.0,0.0,93,0.00,,---,0.00,VWS V14.01,2013-01-14 12:48:00,
2013-01-14 04:53:00,26.1,24.4,30.46,SW,229,0.0,0.0,93,0.00,,---,0.00,VWS V14.01,2013-01-14 12:53:00,
2013-01-14 04:58:00,26.1,24.4,30.46,SW,229,0.0,0.0,93,0.00,,---,0.00,VWS V14.01,2013-01-14 12:58:00,
2013-01-14 05:03:00,26.1,24.4,30.46,SW,229,0.0,0.0,93,0.00,,---,0.00,VWS V14.01,2013-01-14 13:03:00,
2013-01-14 05:08:00,26.1,24.4,30.46,SW,229,2.0,2.0,93,0.00,,---,0.00,VWS V14.01,2013-01-14 13:08:00,
2013-01-14 05:13:00,26.0,24.3,30.45,SW,229,1.0,2.0,93,0.00,,---,0.00,VWS V14.01,2013-01-14 13:13:00,
2013-01-14 05:18:00,26.1,24.4,30.45,SW,229,0.0,1.0,93,0.00,,---,0.00,VWS V14.01,2013-01-14 13:18:00,
2013-01-14 05:23:00,26.1,24.4,30.45,SW,229,0.0,1.0,93,0.00,,---,0.00,VWS V14.01,2013-01-14 13:23:00,
2013-01-14 05:28:00,26.1,24.4,30.45,SW,229,1.0,1.0,93,0.00,,---,0.00,VWS V14.01,2013-01-14 13:28:00,
2013-01-14 05:33:00,26.1,24.4,30.46,SW,229,0.0,1.0,93,0.00,,---,0.00,VWS V14.01,2013-01-14 13:33:00,
2013-01-14 05:38:00,26.1,24.4,30.46,SW,229,1.0,1.0,93,0.00,,---,0.00,VWS V14.01,2013-01-14 13:38:00,
2013-01-14 05:43:00,26.1,24.6,30.46,SW,229,2.0,3.0,94,0.00,,---,0.00,VWS V14.01,2013-01-14 13:43:00,
2013-01-14 05:48:00,26.0,24.5,30.46,SW,229,0.0,2.0,94,0.00,,---,0.00,VWS V14.01,2013-01-14 13:48:00,
2013-01-14 05:53:00,26.0,24.5,30.46,SW,229,0.0,2.0,94,0.00,,---,0.00,VWS V14.01,2013-01-14 13:53:00,
2013-01-14 05:58:00,26.0,24.5,30.46,SW,229,0.0,2.0,94,0.00,,---,0.00,VWS V14.01,2013-01-14 13:58:00,
2013-01-14 06:03:00,26.1,24.6,30.47,SW,229,0.0,2.0,94,0.00,,---,0.00,VWS V14.01,2013-01-14 14:03:00,
2013-01-14 06:08:00,26.1,24.6,30.47,SW,229,0.0,2.0,94,0.00,,---,0.00,VWS V14.01,2013-01-14 14:08:00,
2013-01-14 06:13:00,26.1,24.6,30.47,SW,229,0.0,2.0,94,0.00,,---,0.00,VWS V14.01,2013-01-14 14:13:00,
2013-01-14 06:18:00,26.1,24.6,30.48,SW,229,0.0,0.0,94,0.00,,---,0.00,VWS V14.01,2013-01-14 14:18:00,
2013-01-14 06:23:00,26.1,24.6,30.48,SW,229,2.0,2.0,94,0.00,,---,0.00,VWS V14.01,2013-01-14 14:23:00,
2013-01-14 06:27:00,26.1,24.6,30.48,SW,229,0.0,2.0,94,0.00,,---,0.00,VWS V14.01,2013-01-14 14:27:00,
2013-01-14 06:32:00,26.1,24.6,30.47,WSW,258,2.0,2.0,94,0.00,,---,0.00,VWS V14.01,2013-01-14 14:32:00,
2013-01-14 06:37:00,26.1,24.6,30.47,WSW,258,0.0,2.0,94,0.00,,---,0.00,VWS V14.01,2013-01-14 14:37:00,
2013-01-14 06:42:00,26.1,24.6,30.47,West,260,0.0,2.0,94,0.00,,---,0.00,VWS V14.01,2013-01-14 14:42:00,
2013-01-14 06:47:00,26.1,24.6,30.47,West,260,1.0,2.0,94,0.00,,---,0.00,VWS V14.01,2013-01-14 14:47:00,
2013-01-14 06:52:00,26.1,24.6,30.47,WSW,258,2.0,2.0,94,0.00,,---,0.00,VWS V14.01,2013-01-14 14:52:00,
2013-01-14 06:57:00,26.1,24.6,30.47,WSW,247,0.0,2.0,94,0.00,,---,0.00,VWS V14.01,2013-01-14 14:57:00,
2013-01-14 07:02:00,26.1,24.6,30.48,WSW,247,0.0,2.0,94,0.00,,---,0.00,VWS V14.01,2013-01-14 15:02:00,
2013-01-14 07:07:00,26.1,24.6,30.48,West,263,1.0,2.0,94,0.00,,---,0.00,VWS V14.01,2013-01-14 15:07:00,
2013-01-14 07:12:00,26.1,24.6,30.48,WSW,258,0.0,2.0,94,0.00,,---,0.00,VWS V14.01,2013-01-14 15:12:00,
2013-01-14 07:17:00,26.0,24.5,30.48,WSW,258,0.0,2.0,94,0.00,,---,0.00,VWS V14.01,2013-01-14 15:17:00,
2013-01-14 07:22:00,26.0,24.5,30.48,SSW,210,4.0,5.0,94,0.00,,---,0.00,VWS V14.01,2013-01-14 15:22:00,
2013-01-14 07:27:00,25.8,24.3,30.48,SW,226,2.0,5.0,94,0.00,,---,0.00,VWS V14.01,2013-01-14 15:27:00,
2013-01-14 07:32:00,25.7,24.2,30.48,SW,227,5.0,5.0,94,0.00,,---,0.00,VWS V14.01,2013-01-14 15:32:00,
2013-01-14 07:37:00,25.7,24.2,30.48,SW,216,3.0,5.0,94,0.00,,---,0.00,VWS V14.01,2013-01-14 15:37:00,
2013-01-14 07:42:00,25.7,24.2,30.48,WSW,241,3.0,5.0,94,0.00,,---,0.00,VWS V14.01,2013-01-14 15:42:00,
2013-01-14 07:47:00,25.6,24.1,30.47,West,271,2.0,4.0,94,0.00,,---,0.00,VWS V14.01,2013-01-14 15:47:00,
2013-01-14 07:52:00,25.6,24.1,30.47,West,264,3.0,4.0,94,0.00,,---,0.00,VWS V14.01,2013-01-14 15:52:00,
2013-01-14 07:57:00,25.6,24.1,30.47,WSW,257,2.0,4.0,94,0.00,,---,0.00,VWS V14.01,2013-01-14 15:57:00,
2013-01-14 08:02:00,25.6,24.1,30.49,WSW,256,5.0,5.0,94,0.00,,---,0.00,VWS V14.01,2013-01-14 16:02:00,
2013-01-14 08:07:00,25.6,24.1,30.49,WSW,243,5.0,5.0,94,0.00,,---,0.00,VWS V14.01,2013-01-14 16:07:00,
2013-01-14 08:12:00,25.4,23.9,30.49,WSW,246,2.0,5.0,94,0.00,,---,0.00,VWS V14.01,2013-01-14 16:12:00,
2013-01-14 08:17:00,25.6,24.1,30.49,WSW,246,1.0,3.0,94,0.00,,---,0.00,VWS V14.01,2013-01-14 16:17:00,
2013-01-14 08:22:00,25.6,24.1,30.49,WSW,246,1.0,3.0,94,0.00,,---,0.00,VWS V14.01,2013-01-14 16:22:00,
2013-01-14 08:27:00,25.6,24.1,30.49,WSW,241,0.0,3.0,94,0.00,,---,0.00,VWS V14.01,2013-01-14 16:27:00,
2013-01-14 08:32:00,25.6,24.4,30.48,WSW,241,1.0,3.0,95,0.00,,---,0.00,VWS V14.01,2013-01-14 16:32:00,
2013-01-14 08:37:00,25.7,24.5,30.48,SW,229,1.0,3.0,95,0.00,,---,0.00,VWS V14.01,2013-01-14 16:37:00,
2013-01-14 08:42:00,25.7,24.5,30.48,SW,233,1.0,3.0,95,0.00,,---,0.00,VWS V14.01,2013-01-14 16:42:00,
2013-01-14 08:47:00,25.7,24.5,30.49,SSW,203,1.0,2.0,95,0.00,,---,0.00,VWS V14.01,2013-01-14 16:47:00,
2013-01-14 08:52:00,25.8,24.6,30.49,SSW,205,0.0,2.0,95,0.00,,---,0.00,VWS V14.01,2013-01-14 16:52:00,
2013-01-14 08:57:00,25.8,24.6,30.49,WSW,240,2.0,2.0,95,0.00,,---,0.00,VWS V14.01,2013-01-14 16:57:00,
2013-01-14 09:02:00,25.8,24.6,30.50,WSW,239,3.0,3.0,95,0.00,,---,0.00,VWS V14.01,2013-01-14 17:02:00,
2013-01-14 09:07:00,25.8,24.6,30.50,WSW,239,3.0,3.0,95,0.00,,---,0.00,VWS V14.01,2013-01-14 17:07:00,
2013-01-14 09:12:00,25.8,24.6,30.50,SW,226,3.0,3.0,95,0.00,,---,0.00,VWS V14.01,2013-01-14 17:12:00,
2013-01-14 09:17:00,25.7,24.5,30.50,SW,229,2.0,3.0,95,0.00,,---,0.00,VWS V14.01,2013-01-14 17:17:00,
2013-01-14 09:22:00,25.7,24.5,30.50,West,264,5.0,5.0,95,0.00,,---,0.00,VWS V14.01,2013-01-14 17:22:00,
2013-01-14 09:27:00,25.8,24.6,30.50,SW,234,4.0,6.0,95,0.00,,---,0.00,VWS V14.01,2013-01-14 17:27:00,
2013-01-14 09:32:00,25.8,24.6,30.50,SSW,192,2.0,6.0,95,0.00,,---,0.00,VWS V14.01,2013-01-14 17:32:00,
2013-01-14 09:37:00,26.0,24.8,30.50,SSW,208,2.0,6.0,95,0.00,,---,0.00,VWS V14.01,2013-01-14 17:37:00,
2013-01-14 09:42:00,26.0,24.8,30.50,West,267,3.0,6.0,95,0.00,,---,0.00,VWS V14.01,2013-01-14 17:42:00,
2013-01-14 09:47:00,26.0,24.8,30.51,SW,230,2.0,5.0,95,0.00,,---,0.00,VWS V14.01,2013-01-14 17:47:00,
2013-01-14 09:52:00,26.0,24.8,30.51,SW,229,4.0,5.0,95,0.00,,---,0.00,VWS V14.01,2013-01-14 17:52:00,
2013-01-14 09:57:00,26.0,24.8,30.51,SW,224,2.0,5.0,95,0.00,,---,0.00,VWS V14.01,2013-01-14 17:57:00,
2013-01-14 10:02:00,26.0,24.8,30.51,WSW,241,2.0,5.0,95,0.00,,---,0.00,VWS V14.01,2013-01-14 18:02:00,
2013-01-14 10:07:00,26.0,24.8,30.51,SW,229,5.0,5.0,95,0.00,,---,0.00,VWS V14.01,2013-01-14 18:07:00,
2013-01-14 10:12:00,26.0,24.8,30.51,SW,230,3.0,5.0,95,0.00,,---,0.00,VWS V14.01,2013-01-14 18:12:00,
2013-01-14 10:17:00,26.1,24.9,30.51,WSW,244,6.0,6.0,95,0.00,,---,0.00,VWS V14.01,2013-01-14 18:17:00,
2013-01-14 10:22:00,26.1,24.9,30.51,WSW,254,2.0,6.0,95,0.00,,---,0.00,VWS V14.01,2013-01-14 18:22:00,
2013-01-14 10:27:00,26.1,24.9,30.51,WSW,239,1.0,6.0,95,0.00,,---,0.00,VWS V14.01,2013-01-14 18:27:00,
2013-01-14 10:32:00,26.4,25.2,30.51,WSW,243,3.0,6.0,95,0.00,,---,0.00,VWS V14.01,2013-01-14 18:32:00,
2013-01-14 10:37:00,26.4,25.2,30.51,WSW,241,6.0,6.0,95,0.00,,---,0.00,VWS V14.01,2013-01-14 18:37:00,
2013-01-14 10:42:00,26.6,25.4,30.51,SW,226,7.0,7.0,95,0.00,,---,0.00,VWS V14.01,2013-01-14 18:42:00,
2013-01-14 10:47:00,26.7,25.5,30.50,SW,232,6.0,7.0,95,0.00,,---,0.00,VWS V14.01,2013-01-14 18:47:00,
2013-01-14 10:52:00,27.0,25.5,30.50,WSW,251,3.0,7.0,94,0.00,,---,0.00,VWS V14.01,2013-01-14 18:52:00,
2013-01-14 10:57:00,27.0,25.5,30.50,SW,220,2.0,7.0,94,0.00,,---,0.00,VWS V14.01,2013-01-14 18:57:00,
2013-01-14 11:02:00,27.2,25.7,30.50,WSW,254,1.0,7.0,94,0.00,,---,0.00,VWS V14.01,2013-01-14 19:02:00,
2013-01-14 11:07:00,27.2,25.7,30.50,West,267,5.0,7.0,94,0.00,,---,0.00,VWS V14.01,2013-01-14 19:07:00,
2013-01-14 11:12:00,27.2,25.7,30.50,West,263,2.0,7.0,94,0.00,,---,0.00,VWS V14.01,2013-01-14 19:12:00,
2013-01-14 11:17:00,27.5,26.0,30.50,West,265,3.0,5.0,94,0.00,,---,0.00,VWS V14.01,2013-01-14 19:17:00,
2013-01-14 11:22:00,27.5,26.0,30.50,SW,230,4.0,5.0,94,0.00,,---,0.00,VWS V14.01,2013-01-14 19:22:00,
2013-01-14 11:27:00,27.3,25.8,30.50,SW,227,0.0,5.0,94,0.00,,---,0.00,VWS V14.01,2013-01-14 19:27:00,
2013-01-14 11:32:00,27.5,26.0,30.50,SW,227,1.0,5.0,94,0.00,,---,0.00,VWS V14.01,2013-01-14 19:32:00,
2013-01-14 11:37:00,27.5,25.5,30.50,West,275,1.0,6.0,92,0.00,,---,0.00,VWS V14.01,2013-01-14 19:37:00,
2013-01-14 11:42:00,27.5,25.5,30.50,West,275,1.0,6.0,92,0.00,,---,0.00,VWS V14.01,2013-01-14 19:42:00,
2013-01-14 11:47:00,27.5,25.5,30.50,West,274,0.0,1.0,92,0.00,,---,0.00,VWS V14.01,2013-01-14 19:47:00,
2013-01-14 11:52:00,27.6,25.6,30.50,West,277,0.0,1.0,92,0.00,,---,0.00,VWS V14.01,2013-01-14 19:52:00,
2013-01-14 11:57:00,27.6,25.6,30.50,West,277,0.0,1.0,92,0.00,,---,0.00,VWS V14.01,2013-01-14 19:57:00,
2013-01-14 12:02:00,27.6,25.6,30.49,West,277,0.0,1.0,92,0.00,,---,0.00,VWS V14.01,2013-01-14 20:02:00,
2013-01-14 12:07:00,27.8,25.8,30.49,West,277,1.0,2.0,92,0.00,,---,0.00,VWS V14.01,2013-01-14 20:07:00,
2013-01-14 12:12:00,27.8,25.8,30.49,West,277,3.0,3.0,92,0.00,,---,0.00,VWS V14.01,2013-01-14 20:12:00,
2013-01-14 12:17:00,27.8,25.8,30.49,West,277,0.0,1.0,92,0.00,,---,0.00,VWS V14.01,2013-01-14 20:17:00,
2013-01-14 12:22:00,27.9,25.9,30.49,West,260,3.0,3.0,92,0.00,,---,0.00,VWS V14.01,2013-01-14 20:22:00,
2013-01-14 12:27:00,28.2,26.2,30.49,West,274,3.0,3.0,92,0.00,,---,0.00,VWS V14.01,2013-01-14 20:27:00,
2013-01-14 12:32:00,28.2,26.2,30.48,West,275,0.0,3.0,92,0.00,,---,0.00,VWS V14.01,2013-01-14 20:32:00,
2013-01-14 12:37:00,28.2,26.2,30.48,West,275,0.0,3.0,92,0.00,,---,0.00,VWS V14.01,2013-01-14 20:37:00,
2013-01-14 12:42:00,28.2,26.2,30.48,WSW,250,2.0,3.0,92,0.00,,---,0.00,VWS V14.01,2013-01-14 20:42:00,
2013-01-14 12:47:00,28.2,26.2,30.47,WSW,241,3.0,3.0,92,0.00,,---,0.00,VWS V14.01,2013-01-14 20:47:00,
2013-01-14 12:52:00,28.2,26.2,30.47,West,267,0.0,3.0,92,0.00,,---,0.00,VWS V14.01,2013-01-14 20:52:00,
2013-01-14 12:57:00,28.4,26.4,30.47,West,267,5.0,5.0,92,0.00,,---,0.00,VWS V14.01,2013-01-14 20:57:00,
2013-01-14 13:02:00,28.4,26.6,30.48,West,268,2.0,5.0,93,0.00,,---,0.00,VWS V14.01,2013-01-14 21:02:00,
2013-01-14 13:07:00,28.4,26.6,30.48,West,272,2.0,5.0,93,0.00,,---,0.00,VWS V14.01,2013-01-14 21:07:00,
2013-01-14 13:12:00,28.4,26.6,30.48,West,272,0.0,5.0,93,0.00,,---,0.00,VWS V14.01,2013-01-14 21:12:00,
2013-01-14 13:17:00,28.4,26.6,30.49,West,272,0.0,0.0,93,0.00,,---,0.00,VWS V14.01,2013-01-14 21:17:00,
2013-01-14 13:22:00,28.4,26.6,30.49,West,272,0.0,0.0,93,0.00,,---,0.00,VWS V14.01,2013-01-14 21:22:00,
2013-01-14 13:27:00,28.7,26.9,30.49,West,272,0.0,0.0,93,0.00,,---,0.00,VWS V14.01,2013-01-14 21:27:00,
2013-01-14 13:32:00,28.7,26.9,30.49,West,272,0.0,0.0,93,0.00,,---,0.00,VWS V14.01,2013-01-14 21:32:00,
2013-01-14 13:37:00,28.7,26.9,30.49,West,272,1.0,2.0,93,0.00,,---,0.00,VWS V14.01,2013-01-14 21:37:00,
2013-01-14 13:42:00,28.7,26.9,30.49,West,272,0.0,2.0,93,0.00,,---,0.00,VWS V14.01,2013-01-14 21:42:00,
2013-01-14 13:47:00,28.7,26.9,30.49,West,272,2.0,2.0,93,0.00,,---,0.00,VWS V14.01,2013-01-14 21:47:00,
2013-01-14 13:52:00,29.0,27.2,30.49,West,272,0.0,2.0,93,0.00,,---,0.00,VWS V14.01,2013-01-14 21:52:00,
2013-01-14 13:57:00,29.0,27.2,30.49,West,272,3.0,3.0,93,0.00,,---,0.00,VWS V14.01,2013-01-14 21:57:00,
2013-01-14 14:02:00,28.8,27.0,30.49,SW,217,0.0,4.0,93,0.00,,---,0.00,VWS V14.01,2013-01-14 22:02:00,
2013-01-14 14:07:00,28.8,27.0,30.49,SW,217,0.0,4.0,93,0.00,,---,0.00,VWS V14.01,2013-01-14 22:07:00,
2013-01-14 14:12:00,28.8,27.0,30.49,SW,217,0.0,4.0,93,0.00,,---,0.00,VWS V14.01,2013-01-14 22:12:00,
2013-01-14 14:17:00,28.8,27.0,30.50,SW,217,0.0,0.0,93,0.00,,---,0.00,VWS V14.01,2013-01-14 22:17:00,
2013-01-14 14:22:00,29.1,27.3,30.50,SW,217,0.0,1.0,93,0.00,,---,0.00,VWS V14.01,2013-01-14 22:22:00,
2013-01-14 14:27:00,29.1,27.3,30.50,SW,217,0.0,1.0,93,0.00,,---,0.00,VWS V14.01,2013-01-14 22:27:00,
2013-01-14 14:32:00,29.1,27.3,30.50,WSW,258,3.0,3.0,93,0.00,,---,0.00,VWS V14.01,2013-01-14 22:32:00,
2013-01-14 14:37:00,29.4,27.6,30.50,West,260,0.0,3.0,93,0.00,,---,0.00,VWS V14.01,2013-01-14 22:37:00,
2013-01-14 14:42:00,29.4,27.6,30.50,WSW,256,1.0,3.0,93,0.00,,---,0.00,VWS V14.01,2013-01-14 22:42:00,
2013-01-14 14:47:00,29.4,27.6,30.50,WSW,256,2.0,2.0,93,0.00,,---,0.00,VWS V14.01,2013-01-14 22:47:00,
2013-01-14 14:52:00,29.4,27.6,30.50,WSW,258,0.0,2.0,93,0.00,,---,0.00,VWS V14.01,2013-01-14 22:52:00,
2013-01-14 14:57:00,29.4,27.6,30.50,SW,232,4.0,4.0,93,0.00,,---,0.00,VWS V14.01,2013-01-14 22:57:00,
2013-01-14 15:02:00,29.4,27.9,30.50,West,278,0.0,4.0,94,0.00,,---,0.00,VWS V14.01,2013-01-14 23:02:00,
2013-01-14 15:07:00,29.4,27.9,30.50,West,278,2.0,4.0,94,0.00,,---,0.00,VWS V14.01,2013-01-14 23:07:00,
2013-01-14 15:12:00,29.4,27.9,30.50,West,261,2.0,4.0,94,0.00,,---,0.00,VWS V14.01,2013-01-14 23:12:00,
2013-01-14 15:17:00,29.4,27.9,30.50,West,261,2.0,2.0,94,0.00,,---,0.00,VWS V14.01,2013-01-14 23:17:00,
2013-01-14 15:22:00,29.3,27.8,30.50,WSW,256,0.0,2.0,94,0.00,,---,0.00,VWS V14.01,2013-01-14 23:22:00,
2013-01-14 15:27:00,29.4,27.9,30.50,WSW,256,2.0,2.0,94,0.00,,---,0.00,VWS V14.01,2013-01-14 23:27:00,
2013-01-14 15:32:00,29.4,27.9,30.50,WSW,256,0.0,2.0,94,0.00,,---,0.00,VWS V14.01,2013-01-14 23:32:00,
2013-01-14 15:37:00,29.5,28.0,30.50,WSW,256,0.0,2.0,94,0.00,,---,0.00,VWS V14.01,2013-01-14 23:37:00,
2013-01-14 15:42:00,29.5,28.0,30.50,WSW,256,1.0,2.0,94,0.00,,---,0.00,VWS V14.01,2013-01-14 23:42:00,
2013-01-14 15:47:00,29.5,28.0,30.49,WSW,256,2.0,2.0,94,0.00,,---,0.00,VWS V14.01,2013-01-14 23:47:00,
2013-01-14 15:52:00,29.5,28.0,30.49,WSW,239,2.0,2.0,94,0.00,,---,0.00,VWS V14.01,2013-01-14 23:52:00,
2013-01-14 15:57:00,29.5,28.2,30.49,WSW,239,1.0,2.0,95,0.00,,---,0.00,VWS V14.01,2013-01-14 23:57:00,
2013-01-14 16:02:00,29.5,28.2,30.50,WSW,239,5.0,5.0,95,0.00,,---,0.00,VWS V14.01,2013-01-15 00:02:00,
2013-01-14 16:07:00,29.5,28.2,30.50,SW,230,2.0,5.0,95,0.00,,---,0.00,VWS V14.01,2013-01-15 00:07:00,
2013-01-14 16:12:00,29.5,28.2,30.50,West,264,0.0,5.0,95,0.00,,---,0.00,VWS V14.01,2013-01-15 00:12:00,
2013-01-14 16:17:00,29.4,28.1,30.50,WSW,239,5.0,6.0,95,0.00,,---,0.00,VWS V14.01,2013-01-15 00:17:00,
2013-01-14 16:22:00,29.5,28.2,30.50,WSW,239,0.0,6.0,95,0.00,,---,0.00,VWS V14.01,2013-01-15 00:22:00,
2013-01-14 16:27:00,29.5,28.2,30.50,WSW,239,0.0,6.0,95,0.00,,---,0.00,VWS V14.01,2013-01-15 00:27:00,
2013-01-14 16:32:00,29.5,28.2,30.50,WSW,239,1.0,6.0,95,0.00,,---,0.00,VWS V14.01,2013-01-15 00:32:00,
2013-01-14 16:37:00,29.5,28.2,30.50,WSW,246,0.0,6.0,95,0.00,,---,0.00,VWS V14.01,2013-01-15 00:37:00,
2013-01-14 16:42:00,29.7,28.5,30.50,WSW,246,0.0,6.0,95,0.00,,---,0.00,VWS V14.01,2013-01-15 00:42:00,
2013-01-14 16:47:00,29.7,28.5,30.50,WSW,246,0.0,2.0,95,0.00,,---,0.00,VWS V14.01,2013-01-15 00:47:00,
2013-01-14 16:52:00,29.7,28.5,30.50,WSW,246,0.0,2.0,95,0.00,,---,0.00,VWS V14.01,2013-01-15 00:52:00,
2013-01-14 16:57:00,29.7,28.5,30.50,WSW,246,0.0,2.0,95,0.00,,---,0.00,VWS V14.01,2013-01-15 00:57:00,
2013-01-14 17:02:00,29.8,28.5,30.50,WSW,246,0.0,2.0,95,0.00,,---,0.00,VWS V14.01,2013-01-15 01:02:00,
2013-01-14 17:07:00,29.8,28.5,30.50,WSW,246,0.0,2.0,95,0.00,,---,0.00,VWS V14.01,2013-01-15 01:07:00,
2013-01-14 17:12:00,29.8,28.5,30.50,WSW,246,0.0,2.0,95,0.00,,---,0.00,VWS V14.01,2013-01-15 01:12:00,
2013-01-14 17:17:00,29.8,28.5,30.50,WSW,246,0.0,0.0,95,0.00,,---,0.00,VWS V14.01,2013-01-15 01:17:00,
2013-01-14 17:22:00,29.8,28.5,30.50,WSW,246,0.0,0.0,95,0.00,,---,0.00,VWS V14.01,2013-01-15 01:22:00,
2013-01-14 17:27:00,29.8,28.5,30.50,WSW,246,0.0,2.0,95,0.00,,---,0.00,VWS V14.01,2013-01-15 01:27:00,
2013-01-14 17:32:00,29.8,28.5,30.50,WSW,246,0.0,2.0,95,0.00,,---,0.00,VWS V14.01,2013-01-15 01:32:00,
2013-01-14 17:37:00,30.0,28.7,30.50,WSW,246,0.0,2.0,95,0.00,,---,0.00,VWS V14.01,2013-01-15 01:37:00,
2013-01-14 17:42:00,30.0,28.7,30.50,WSW,246,0.0,2.0,95,0.00,,---,0.00,VWS V14.01,2013-01-15 01:42:00,
2013-01-14 17:47:00,30.0,28.7,30.50,WSW,246,0.0,0.0,95,0.00,,---,0.00,VWS V14.01,2013-01-15 01:47:00,
2013-01-14 17:52:00,30.1,28.8,30.50,WSW,246,1.0,1.0,95,0.00,,---,0.00,VWS V14.01,2013-01-15 01:52:00,
2013-01-14 17:57:00,30.1,28.8,30.50,WSW,246,0.0,1.0,95,0.00,,---,0.00,VWS V14.01,2013-01-15 01:57:00,
2013-01-14 18:02:00,30.1,28.8,30.49,WSW,247,1.0,1.0,95,0.00,,---,0.00,VWS V14.01,2013-01-15 02:02:00,
2013-01-14 18:07:00,30.1,28.8,30.49,WSW,247,0.0,1.0,95,0.00,,---,0.00,VWS V14.01,2013-01-15 02:07:00,
2013-01-14 18:12:00,30.1,28.8,30.49,WSW,247,3.0,3.0,95,0.00,,---,0.00,VWS V14.01,2013-01-15 02:12:00,
2013-01-14 18:17:00,30.1,28.8,30.49,WSW,247,1.0,3.0,95,0.00,,---,0.00,VWS V14.01,2013-01-15 02:17:00,
2013-01-14 18:22:00,30.3,29.0,30.49,WSW,247,0.0,3.0,95,0.00,,---,0.00,VWS V14.01,2013-01-15 02:22:00,
2013-01-14 18:27:00,30.3,29.0,30.49,West,270,3.0,3.0,95,0.00,,---,0.00,VWS V14.01,2013-01-15 02:27:00,
2013-01-14 18:32:00,30.3,29.0,30.49,West,270,0.0,3.0,95,0.00,,---,0.00,VWS V14.01,2013-01-15 02:32:00,
2013-01-14 18:37:00,30.3,29.0,30.49,West,270,0.0,3.0,95,0.00,,---,0.00,VWS V14.01,2013-01-15 02:37:00,
2013-01-14 18:42:00,30.3,29.0,30.49,West,270,0.0,3.0,95,0.00,,---,0.00,VWS V14.01,2013-01-15 02:42:00,
2013-01-14 18:47:00,30.3,29.0,30.50,West,270,0.0,0.0,95,0.00,,---,0.00,VWS V14.01,2013-01-15 02:47:00,
2013-01-14 18:52:00,30.3,29.0,30.50,West,270,0.0,0.0,95,0.00,,---,0.00,VWS V14.01,2013-01-15 02:52:00,
2013-01-14 18:57:00,30.3,29.0,30.50,West,270,0.0,0.0,95,0.00,,---,0.00,VWS V14.01,2013-01-15 02:57:00,
2013-01-14 19:02:00,30.3,29.0,30.50,West,270,0.0,0.0,95,0.00,,---,0.00,VWS V14.01,2013-01-15 03:02:00,
2013-01-14 19:07:00,30.3,29.0,30.50,West,270,0.0,0.0,95,0.00,,---,0.00,VWS V14.01,2013-01-15 03:07:00,
2013-01-14 19:12:00,30.3,29.0,30.50,West,270,0.0,0.0,95,0.00,,---,0.00,VWS V14.01,2013-01-15 03:12:00,
2013-01-14 19:17:00,30.3,29.0,30.50,West,270,0.0,0.0,95,0.00,,---,0.00,VWS V14.01,2013-01-15 03:17:00,
2013-01-14 19:22:00,30.4,29.1,30.50,West,270,0.0,0.0,95,0.00,,---,0.00,VWS V14.01,2013-01-15 03:22:00,
2013-01-14 19:27:00,30.4,29.1,30.50,West,270,0.0,0.0,95,0.00,,---,0.00,VWS V14.01,2013-01-15 03:27:00,
2013-01-14 19:32:00,30.4,29.1,30.50,West,270,0.0,0.0,95,0.00,,---,0.00,VWS V14.01,2013-01-15 03:32:00,
2013-01-14 19:37:00,30.4,29.1,30.50,West,270,0.0,0.0,95,0.00,,---,0.00,VWS V14.01,2013-01-15 03:37:00,
2013-01-14 19:42:00,30.4,29.1,30.50,West,270,0.0,0.0,95,0.00,,---,0.00,VWS V14.01,2013-01-15 03:42:00,
2013-01-14 19:47:00,30.7,29.7,30.50,West,270,0.0,0.0,96,0.00,,---,0.00,VWS V14.01,2013-01-15 03:47:00,
2013-01-14 19:52:00,30.7,29.7,30.50,West,270,0.0,0.0,96,0.00,,---,0.00,VWS V14.01,2013-01-15 03:52:00,
2013-01-14 19:57:00,30.7,29.7,30.50,West,270,0.0,0.0,96,0.00,,---,0.00,VWS V14.01,2013-01-15 03:57:00,
2013-01-14 20:02:00,30.9,29.9,30.50,North,353,0.0,0.0,96,0.00,,---,0.00,VWS V14.01,2013-01-15 04:02:00,
2013-01-14 20:07:00,30.9,29.9,30.50,North,353,0.0,0.0,96,0.00,,---,0.00,VWS V14.01,2013-01-15 04:07:00,
2013-01-14 20:12:00,30.9,29.9,30.50,North,353,0.0,0.0,96,0.00,,---,0.00,VWS V14.01,2013-01-15 04:12:00,
2013-01-14 20:17:00,30.9,29.9,30.51,North,353,0.0,0.0,96,0.00,,---,0.00,VWS V14.01,2013-01-15 04:17:00,
2013-01-14 20:22:00,30.9,29.9,30.51,North,353,0.0,0.0,96,0.00,,---,0.00,VWS V14.01,2013-01-15 04:22:00,
2013-01-14 20:27:00,30.9,29.9,30.51,North,353,0.0,0.0,96,0.00,,---,0.00,VWS V14.01,2013-01-15 04:27:00,
2013-01-14 20:32:00,30.9,29.9,30.50,North,353,0.0,0.0,96,0.00,,---,0.00,VWS V14.01,2013-01-15 04:32:00,
2013-01-14 20:37:00,30.9,29.9,30.50,North,353,0.0,0.0,96,0.00,,---,0.00,VWS V14.01,2013-01-15 04:37:00,
2013-01-14 20:42:00,30.9,29.9,30.50,North,353,0.0,0.0,96,0.00,,---,0.00,VWS V14.01,2013-01-15 04:42:00,
2013-01-14 20:47:00,30.9,29.9,30.50,North,349,1.0,1.0,96,0.00,,---,0.00,VWS V14.01,2013-01-15 04:47:00,
2013-01-14 20:52:00,30.9,29.9,30.50,North,349,0.0,1.0,96,0.00,,---,0.00,VWS V14.01,2013-01-15 04:52:00,
2013-01-14 20:57:00,30.9,29.9,30.50,North,349,0.0,1.0,96,0.00,,---,0.00,VWS V14.01,2013-01-15 04:57:00,
2013-01-14 21:00:00,31.0,30.0,30.51,North,349,0.0,1.0,96,0.00,,---,0.00,VWS V14.01,2013-01-15 05:00:00,
2013-01-14 21:01:00,31.0,30.0,30.51,North,349,0.0,1.0,96,0.00,,---,0.00,VWS V14.01,2013-01-15 05:01:00,
2013-01-14 21:06:00,31.0,30.0,30.51,North,349,0.0,1.0,96,0.00,,---,0.00,VWS V14.01,2013-01-15 05:06:00,
2013-01-14 21:11:00,31.0,30.0,30.51,North,349,0.0,1.0,96,0.00,,---,0.00,VWS V14.01,2013-01-15 05:11:00,
2013-01-14 21:16:00,31.0,30.0,30.50,North,349,0.0,0.0,96,0.00,,---,0.00,VWS V14.01,2013-01-15 05:16:00,
2013-01-14 21:21:00,31.0,30.0,30.50,North,349,0.0,0.0,96,0.00,,---,0.00,VWS V14.01,2013-01-15 05:21:00,
2013-01-14 21:26:00,31.0,30.0,30.50,North,349,0.0,0.0,96,0.00,,---,0.00,VWS V14.01,2013-01-15 05:26:00,
2013-01-14 21:31:00,31.0,30.0,30.51,North,349,0.0,0.0,96,0.00,,---,0.00,VWS V14.01,2013-01-15 05:31:00,
2013-01-14 21:36:00,31.0,30.0,30.51,North,349,0.0,0.0,96,0.00,,---,0.00,VWS V14.01,2013-01-15 05:36:00,
2013-01-14 21:41:00,31.0,30.0,30.51,North,349,0.0,0.0,96,0.00,,---,0.00,VWS V14.01,2013-01-15 05:41:00,
2013-01-14 21:46:00,31.0,30.2,30.51,North,349,0.0,0.0,97,0.00,,---,0.00,VWS V14.01,2013-01-15 05:46:00,
2013-01-14 21:51:00,31.0,30.2,30.51,North,349,0.0,0.0,97,0.00,,---,0.00,VWS V14.01,2013-01-15 05:51:00,
2013-01-14 21:56:00,31.0,30.2,30.51,North,349,0.0,0.0,97,0.00,,---,0.00,VWS V14.01,2013-01-15 05:56:00,
2013-01-14 22:01:00,31.2,30.5,30.50,North,349,0.0,0.0,97,0.00,,---,0.00,VWS V14.01,2013-01-15 06:01:00,
2013-01-14 22:06:00,31.2,30.2,30.50,North,349,0.0,0.0,96,0.00,,---,0.00,VWS V14.01,2013-01-15 06:06:00,
2013-01-14 22:11:00,30.9,29.9,30.50,North,349,0.0,0.0,96,0.00,,---,0.00,VWS V14.01,2013-01-15 06:11:00,
2013-01-14 22:15:00,30.9,30.1,30.50,North,349,0.0,0.0,97,0.00,,---,0.00,VWS V14.01,2013-01-15 06:15:00,
2013-01-14 22:20:00,30.9,30.1,30.50,North,349,0.0,0.0,97,0.00,,---,0.00,VWS V14.01,2013-01-15 06:20:00,
2013-01-14 22:25:00,31.0,30.2,30.50,North,349,1.0,1.0,97,0.00,,---,0.00,VWS V14.01,2013-01-15 06:25:00,